Time;durP1;ratioP1;P1;durP2;ratioP2;P2;SDS_P1;SDS_P2;PMS_P1;PMS_P2;Temp;Humidity;BMP_temperature;BMP_pressure;BME280_temperature;BME280_humidity;BME280_pressure;Samples;Min_cycle;Max_cycle;Signal;HPM_P1;HPM_P2
2021/11/21 00:01:07;;;;;;;46.03;37.22;;;10.30;99.90;;;;;;5031089;28;20462;-83
2021/11/21 00:03:33;;;;;;;44.03;36.35;;;10.30;99.90;;;;;;5013410;28;20728;-85
2021/11/21 00:05:58;;;;;;;46.20;37.17;;;10.40;99.90;;;;;;5030219;28;20393;-85
2021/11/21 00:08:24;;;;;;;44.47;35.53;;;10.40;99.90;;;;;;5012738;28;20776;-81
2021/11/21 00:10:51;;;;;;;47.50;36.60;;;10.40;99.90;;;;;;5012082;28;21046;-82
2021/11/21 00:13:16;;;;;;;44.85;35.85;;;10.30;99.90;;;;;;5030505;28;20378;-83
2021/11/21 00:15:42;;;;;;;45.07;35.47;;;10.40;99.90;;;;;;5030334;28;20385;-82
2021/11/21 00:18:09;;;;;;;45.35;35.30;;;10.30;99.90;;;;;;5030279;28;20381;-84
2021/11/21 00:20:36;;;;;;;44.00;34.65;;;10.20;99.90;;;;;;5011868;28;20428;-84
2021/11/21 00:23:01;;;;;;;43.65;35.03;;;10.30;99.90;;;;;;5030075;28;20390;-81
2021/11/21 00:25:27;;;;;;;42.10;34.70;;;10.20;99.90;;;;;;5012249;28;20380;-81
2021/11/21 00:27:54;;;;;;;41.90;34.47;;;10.20;99.90;;;;;;5012302;28;20539;-83
2021/11/21 00:30:20;;;;;;;41.58;34.38;;;10.10;99.90;;;;;;5029860;28;20392;-85
2021/11/21 00:32:46;;;;;;;40.57;33.40;;;10.20;99.90;;;;;;5029665;28;20370;-84
2021/11/21 00:35:13;;;;;;;44.67;34.37;;;10.20;99.90;;;;;;5011942;28;20975;-84
2021/11/21 00:37:39;;;;;;;41.75;33.22;;;10.20;99.90;;;;;;5011932;28;20405;-85
2021/11/21 00:40:07;;;;;;;40.42;33.15;;;10.20;99.90;;;;;;5029560;28;20400;-82
2021/11/21 00:42:33;;;;;;;39.70;32.30;;;10.30;99.90;;;;;;5011772;28;20385;-85
2021/11/21 00:44:59;;;;;;;40.63;32.27;;;10.20;99.90;;;;;;5029822;28;20374;-82
2021/11/21 00:47:25;;;;;;;39.80;32.05;;;10.20;99.90;;;;;;5011662;28;20425;-82
2021/11/21 00:49:51;;;;;;;40.05;31.60;;;10.20;99.90;;;;;;5011831;28;20413;-85
2021/11/21 00:52:17;;;;;;;41.20;31.20;;;10.20;99.90;;;;;;5028100;28;20397;-82
2021/11/21 00:54:54;;;;;;;36.27;29.73;;;10.10;99.90;;;;;;5029722;28;20476;-82
2021/11/21 00:57:20;;;;;;;34.30;28.92;;;10.10;99.90;;;;;;5012873;28;20393;-85
2021/11/21 00:59:47;;;;;;;34.88;28.90;;;10.10;99.90;;;;;;5012083;28;20405;-82
2021/11/21 01:02:13;;;;;;;34.72;28.80;;;10.00;99.90;;;;;;5011917;28;20377;-85
2021/11/21 01:04:41;;;;;;;33.58;28.58;;;10.00;99.90;;;;;;5011306;28;20393;-83
2021/11/21 01:07:08;;;;;;;36.08;30.65;;;10.10;99.90;;;;;;5029565;28;20393;-83
2021/11/21 01:09:34;;;;;;;35.55;29.42;;;10.10;99.90;;;;;;5029318;28;20456;-83
2021/11/21 01:12:01;;;;;;;36.97;30.08;;;10.10;99.90;;;;;;5029230;28;20377;-82
2021/11/21 01:14:28;;;;;;;39.33;31.33;;;10.10;99.90;;;;;;5029432;28;20380;-84
2021/11/21 01:16:54;;;;;;;38.00;31.33;;;10.10;99.90;;;;;;5029602;28;20447;-82
2021/11/21 01:19:20;;;;;;;38.25;30.77;;;10.00;99.90;;;;;;5029493;28;20377;-82
2021/11/21 01:21:46;;;;;;;38.65;32.17;;;10.00;99.90;;;;;;5027707;28;20490;-83
2021/11/21 01:24:12;;;;;;;40.30;32.37;;;10.00;99.90;;;;;;5029394;28;20394;-84
2021/11/21 01:26:39;;;;;;;40.10;32.03;;;10.00;99.90;;;;;;5029111;28;20381;-84
2021/11/21 01:29:05;;;;;;;39.83;32.47;;;10.10;99.90;;;;;;5028744;28;20946;-82
2021/11/21 01:31:31;;;;;;;37.57;30.90;;;10.00;99.90;;;;;;5028828;28;20451;-82
2021/11/21 01:33:57;;;;;;;36.33;31.60;;;10.00;99.90;;;;;;5029178;28;20419;-83
2021/11/21 01:36:22;;;;;;;37.55;30.67;;;10.00;99.90;;;;;;5028641;28;20950;-83
2021/11/21 01:38:48;;;;;;;37.85;31.50;;;10.00;99.90;;;;;;5012545;28;20922;-79
2021/11/21 01:41:14;;;;;;;34.75;30.50;;;10.00;99.90;;;;;;5013142;28;20413;-82
2021/11/21 01:43:42;;;;;;;38.63;31.00;;;10.00;99.90;;;;;;5012041;28;20384;-86
2021/11/21 01:46:08;;;;;;;37.55;30.75;;;10.10;99.90;;;;;;5029155;28;20377;-83
2021/11/21 01:48:35;;;;;;;36.97;30.58;;;10.10;99.90;;;;;;5027609;28;20902;-85
2021/11/21 01:51:04;;;;;;;36.55;31.15;;;10.00;99.90;;;;;;5011047;28;20783;-83
2021/11/21 01:53:31;;;;;;;37.15;31.92;;;10.00;99.90;;;;;;5010426;28;20488;-84
2021/11/21 01:55:57;;;;;;;36.97;31.13;;;10.00;99.90;;;;;;5011145;28;20416;-84
2021/11/21 01:58:23;;;;;;;37.15;31.10;;;10.10;99.90;;;;;;5012086;28;20449;-84
2021/11/21 02:00:49;;;;;;;37.90;31.88;;;10.00;99.90;;;;;;5029046;28;20476;-82
2021/11/21 02:03:17;;;;;;;35.15;30.05;;;10.00;99.90;;;;;;5028672;28;20377;-84
2021/11/21 02:05:44;;;;;;;38.53;31.20;;;10.00;99.90;;;;;;5010956;28;20381;-83
2021/11/21 02:08:10;;;;;;;36.97;30.90;;;10.00;99.90;;;;;;5010642;28;20404;-85
2021/11/21 02:10:36;;;;;;;38.08;30.27;;;9.90;99.90;;;;;;5028625;28;20369;-81
2021/11/21 02:13:04;;;;;;;34.35;29.77;;;9.90;99.90;;;;;;5027808;28;20744;-83
2021/11/21 02:15:30;;;;;;;38.88;31.50;;;9.90;99.90;;;;;;5028783;28;20381;-83
2021/11/21 02:17:56;;;;;;;36.97;29.85;;;9.90;99.90;;;;;;5010705;28;20725;-83
2021/11/21 02:20:42;;;;;;;36.57;30.63;;;9.90;99.90;;;;;;5010954;28;20412;-86
2021/11/21 02:23:09;;;;;;;36.25;31.02;;;9.90;99.90;;;;;;5028098;28;20476;-84
2021/11/21 02:25:36;;;;;;;36.78;30.67;;;9.90;99.90;;;;;;5028166;28;20382;-83
2021/11/21 02:28:02;;;;;;;38.45;30.23;;;9.90;99.90;;;;;;5010577;28;20440;-85
2021/11/21 02:30:28;;;;;;;36.33;30.13;;;10.00;99.90;;;;;;5011048;28;20386;-85
2021/11/21 02:32:54;;;;;;;37.33;30.42;;;10.00;99.90;;;;;;5028410;28;20432;-83
2021/11/21 02:35:21;;;;;;;36.42;30.02;;;9.90;99.90;;;;;;5031986;28;20374;-84
2021/11/21 02:37:49;;;;;;;36.72;30.42;;;10.00;99.90;;;;;;5013722;28;20425;-82
2021/11/21 02:40:17;;;;;;;36.17;29.90;;;9.90;99.90;;;;;;5032013;28;20402;-85
2021/11/21 02:42:42;;;;;;;35.13;29.77;;;10.00;99.90;;;;;;5031941;28;20369;-81
2021/11/21 02:45:12;;;;;;;38.13;29.80;;;10.00;99.90;;;;;;5032226;28;20404;-82
2021/11/21 02:47:37;;;;;;;36.97;30.58;;;10.00;99.90;;;;;;5014053;28;20382;-84
2021/11/21 02:50:14;;;;;;;36.42;30.48;;;10.00;99.90;;;;;;5031592;28;20392;-84
2021/11/21 02:52:40;;;;;;;37.67;31.40;;;10.00;99.90;;;;;;5013829;28;20396;-85
2021/11/21 02:55:07;;;;;;;39.10;31.25;;;10.00;99.90;;;;;;5014158;28;20384;-83
2021/11/21 02:57:35;;;;;;;37.72;31.58;;;10.00;99.90;;;;;;5031970;28;20373;-85
2021/11/21 03:00:02;;;;;;;37.90;31.08;;;10.00;99.90;;;;;;5031493;28;20405;-84
2021/11/21 03:02:28;;;;;;;40.33;32.17;;;10.00;99.90;;;;;;5032201;28;20381;-85
2021/11/21 03:04:56;;;;;;;38.17;31.02;;;9.90;99.90;;;;;;5013677;28;20382;-85
2021/11/21 03:07:22;;;;;;;39.38;32.15;;;10.00;99.90;;;;;;5013917;28;20435;-84
2021/11/21 03:09:50;;;;;;;39.67;31.17;;;9.90;99.90;;;;;;5014837;28;20791;-82
2021/11/21 03:12:19;;;;;;;41.40;32.20;;;9.90;99.90;;;;;;5014601;28;20516;-86
2021/11/21 03:14:46;;;;;;;37.60;32.08;;;9.90;99.90;;;;;;5014632;28;20440;-83
2021/11/21 03:17:11;;;;;;;39.90;31.70;;;9.90;99.90;;;;;;5013958;28;20483;-85
2021/11/21 03:19:37;;;;;;;38.07;31.40;;;10.00;99.90;;;;;;5032005;28;20377;-84
2021/11/21 03:22:04;;;;;;;41.03;31.70;;;10.00;99.90;;;;;;5013931;28;20417;-84
2021/11/21 03:24:29;;;;;;;38.92;31.98;;;9.90;99.90;;;;;;5031746;28;20384;-87
2021/11/21 03:26:55;;;;;;;38.58;31.45;;;9.80;99.90;;;;;;5031090;28;20369;-85
2021/11/21 03:29:21;;;;;;;39.07;32.33;;;9.80;99.90;;;;;;5013356;28;20392;-85
2021/11/21 03:31:47;;;;;;;39.87;31.63;;;9.80;99.90;;;;;;5030810;28;20868;-85
2021/11/21 03:34:13;;;;;;;39.80;31.93;;;9.80;99.90;;;;;;5013657;28;20385;-86
2021/11/21 03:36:38;;;;;;;38.65;30.42;;;9.80;99.90;;;;;;5014160;28;20393;-84
2021/11/21 03:39:06;;;;;;;41.10;32.35;;;9.80;99.90;;;;;;5029788;28;20401;-83
2021/11/21 03:41:34;;;;;;;39.15;31.55;;;9.80;99.90;;;;;;5031415;28;20401;-87
2021/11/21 03:44:00;;;;;;;41.40;33.10;;;9.80;99.90;;;;;;5013483;28;20718;-84
2021/11/21 03:46:26;;;;;;;38.63;31.88;;;9.80;99.90;;;;;;5030039;28;20370;-84
2021/11/21 03:48:52;;;;;;;39.73;32.23;;;9.80;99.90;;;;;;5029987;28;20917;-83
2021/11/21 03:51:18;;;;;;;39.70;31.33;;;9.80;99.90;;;;;;5030159;28;20872;-83
2021/11/21 03:53:43;;;;;;;40.30;32.60;;;9.80;99.90;;;;;;5037296;28;20447;-82
2021/11/21 03:56:10;;;;;;;40.63;32.63;;;9.80;99.90;;;;;;5017390;28;20385;-83
2021/11/21 03:58:36;;;;;;;37.58;31.08;;;9.80;99.90;;;;;;5031003;28;20374;-83
2021/11/21 04:01:02;;;;;;;40.17;32.67;;;9.80;99.90;;;;;;5030689;28;20464;-84
2021/11/21 04:03:28;;;;;;;40.33;32.10;;;9.80;99.90;;;;;;5030719;28;20396;-84
2021/11/21 04:05:54;;;;;;;42.45;33.28;;;9.80;99.90;;;;;;5013260;28;20887;-84
2021/11/21 04:08:20;;;;;;;40.00;32.58;;;9.70;99.90;;;;;;5030219;28;20888;-86
2021/11/21 04:10:46;;;;;;;41.40;32.60;;;9.80;99.90;;;;;;5030588;28;20872;-87
2021/11/21 04:13:11;;;;;;;42.17;34.08;;;9.80;99.90;;;;;;5012565;28;20385;-84
2021/11/21 04:15:38;;;;;;;41.88;33.38;;;9.70;99.90;;;;;;5031158;28;20856;-84
2021/11/21 04:18:04;;;;;;;44.00;34.10;;;9.70;99.90;;;;;;5012372;28;20385;-84
2021/11/21 04:20:30;;;;;;;43.45;34.65;;;9.70;99.90;;;;;;5029703;28;20409;-83
2021/11/21 04:22:57;;;;;;;44.03;34.97;;;9.60;99.90;;;;;;5030189;28;20423;-82
2021/11/21 04:25:22;;;;;;;44.80;34.55;;;9.60;99.90;;;;;;5029965;28;20447;-83
2021/11/21 04:27:48;;;;;;;41.53;33.13;;;9.60;99.90;;;;;;5011959;28;20907;-84
2021/11/21 04:30:15;;;;;;;42.67;34.00;;;9.60;99.90;;;;;;5030381;28;20389;-87
2021/11/21 04:32:47;;;;;;;44.63;35.25;;;9.60;99.90;;;;;;5012724;28;20565;-82
2021/11/21 04:35:16;;;;;;;42.70;34.53;;;9.60;99.90;;;;;;5012813;28;20453;-85
2021/11/21 04:37:43;;;;;;;43.15;34.83;;;9.60;99.90;;;;;;5012498;28;20451;-82
2021/11/21 04:40:11;;;;;;;42.92;33.90;;;9.60;99.90;;;;;;5029487;28;20425;-85
2021/11/21 04:42:37;;;;;;;43.75;34.35;;;9.60;99.90;;;;;;5012042;28;20377;-85
2021/11/21 04:45:03;;;;;;;42.80;34.85;;;9.60;99.90;;;;;;5012078;28;20397;-83
2021/11/21 04:47:29;;;;;;;44.63;34.33;;;9.60;99.90;;;;;;5012138;28;20381;-85
2021/11/21 04:49:55;;;;;;;42.07;33.87;;;9.50;99.90;;;;;;5012152;28;20388;-87
2021/11/21 04:52:21;;;;;;;43.42;34.50;;;9.50;99.90;;;;;;5011800;28;20763;-84
2021/11/21 04:54:46;;;;;;;44.33;34.50;;;9.50;99.90;;;;;;5029179;28;20402;-86
2021/11/21 04:57:14;;;;;;;43.92;34.50;;;9.60;99.90;;;;;;5011674;28;20431;-83
2021/11/21 04:59:41;;;;;;;43.05;34.33;;;9.60;99.90;;;;;;5011324;28;21211;-85
2021/11/21 05:02:07;;;;;;;44.42;35.13;;;9.60;99.90;;;;;;5029859;28;20453;-81
2021/11/21 05:04:32;;;;;;;43.97;34.70;;;9.60;99.90;;;;;;5011917;28;20468;-85
2021/11/21 05:06:58;;;;;;;46.40;35.60;;;9.60;99.90;;;;;;5028121;28;20443;-83
2021/11/21 05:09:24;;;;;;;44.22;36.15;;;9.50;99.90;;;;;;5029670;28;20473;-83
2021/11/21 05:11:50;;;;;;;44.60;34.30;;;9.40;99.90;;;;;;5029868;28;20381;-84
2021/11/21 05:14:18;;;;;;;44.58;35.53;;;9.50;99.90;;;;;;5029865;28;20381;-82
2021/11/21 05:16:44;;;;;;;46.93;36.20;;;9.40;99.90;;;;;;5011906;28;20463;-82
2021/11/21 05:19:10;;;;;;;46.85;35.58;;;9.40;99.90;;;;;;5029804;28;20860;-84
2021/11/21 05:21:35;;;;;;;45.10;34.67;;;9.40;99.90;;;;;;5029998;28;20489;-84
2021/11/21 05:24:01;;;;;;;48.10;35.80;;;9.50;99.90;;;;;;5011883;28;21009;-85
2021/11/21 05:26:28;;;;;;;46.47;35.45;;;9.50;99.90;;;;;;5031432;28;20432;-84
2021/11/21 05:28:54;;;;;;;44.63;35.00;;;9.30;99.90;;;;;;5012713;28;20394;-83
2021/11/21 05:31:21;;;;;;;44.38;34.20;;;9.30;99.90;;;;;;5031181;28;20384;-83
2021/11/21 05:33:46;;;;;;;44.92;35.03;;;9.40;99.90;;;;;;5031628;28;20382;-81
2021/11/21 05:36:12;;;;;;;43.65;33.75;;;9.30;99.90;;;;;;5031578;28;20373;-84
2021/11/21 05:38:38;;;;;;;45.63;34.35;;;9.40;99.90;;;;;;5029486;28;20385;-83
2021/11/21 05:41:04;;;;;;;43.57;34.03;;;9.40;99.90;;;;;;5012284;28;20496;-81
2021/11/21 05:43:30;;;;;;;44.50;33.33;;;9.30;99.90;;;;;;5012701;28;20941;-84
2021/11/21 05:45:55;;;;;;;45.58;34.60;;;9.30;99.90;;;;;;5011877;28;20404;-82
2021/11/21 05:48:21;;;;;;;42.63;32.95;;;9.30;99.90;;;;;;5031217;28;20831;-83
2021/11/21 05:50:47;;;;;;;43.72;33.15;;;9.30;99.90;;;;;;5031452;28;20412;-85
2021/11/21 05:53:13;;;;;;;42.00;32.90;;;9.20;99.90;;;;;;5030258;28;20405;-82
2021/11/21 05:55:38;;;;;;;44.57;33.20;;;9.20;99.90;;;;;;5028569;28;20409;-86
2021/11/21 05:58:04;;;;;;;45.93;34.80;;;9.20;99.90;;;;;;5029577;28;20945;-82
2021/11/21 06:00:30;;;;;;;42.78;33.45;;;9.20;99.90;;;;;;5029018;28;20401;-82
2021/11/21 06:02:56;;;;;;;43.13;33.88;;;9.30;99.90;;;;;;5032841;28;20439;-84
2021/11/21 06:05:22;;;;;;;42.10;33.58;;;9.20;99.90;;;;;;5012829;28;20386;-84
2021/11/21 06:07:48;;;;;;;42.90;32.72;;;9.20;99.90;;;;;;5012401;28;20451;-82
2021/11/21 06:10:15;;;;;;;42.42;32.50;;;9.20;99.90;;;;;;5034485;28;21039;-84
2021/11/21 06:12:41;;;;;;;40.17;30.85;;;9.20;99.90;;;;;;5033539;28;20381;-85
2021/11/21 06:15:08;;;;;;;39.08;30.25;;;9.10;99.90;;;;;;5033708;28;20447;-85
2021/11/21 06:17:34;;;;;;;42.55;32.03;;;9.20;99.90;;;;;;5015180;28;20380;-83
2021/11/21 06:20:00;;;;;;;40.67;32.00;;;9.20;99.90;;;;;;5015432;28;20401;-85
2021/11/21 06:22:27;;;;;;;39.80;30.60;;;9.20;99.90;;;;;;5014869;28;20389;-83
2021/11/21 06:24:52;;;;;;;42.20;31.60;;;9.20;99.90;;;;;;5032893;28;20386;-82
2021/11/21 06:27:18;;;;;;;41.10;30.70;;;9.30;99.90;;;;;;5015350;28;20392;-82
2021/11/21 06:29:44;;;;;;;38.42;29.77;;;9.20;99.90;;;;;;5033001;28;20953;-82
2021/11/21 06:32:10;;;;;;;38.22;29.83;;;9.30;99.90;;;;;;5014908;28;20910;-84
2021/11/21 06:34:37;;;;;;;37.35;28.88;;;9.40;99.90;;;;;;5015286;28;20382;-83
2021/11/21 06:37:06;;;;;;;36.40;28.43;;;9.40;99.90;;;;;;5015351;28;20468;-83
2021/11/21 06:39:33;;;;;;;39.80;31.83;;;9.50;99.90;;;;;;5032764;28;20396;-83
2021/11/21 06:41:59;;;;;;;41.08;29.92;;;9.40;99.90;;;;;;5032212;28;20485;-82
2021/11/21 06:44:26;;;;;;;34.92;27.52;;;9.40;99.90;;;;;;5032784;28;20377;-85
2021/11/21 06:46:52;;;;;;;37.00;28.48;;;9.40;99.90;;;;;;5015096;28;20404;-82
2021/11/21 06:49:17;;;;;;;37.33;29.15;;;9.20;99.90;;;;;;5032570;28;20382;-86
2021/11/21 06:51:44;;;;;;;36.27;28.37;;;9.20;99.90;;;;;;5031300;28;20370;-84
2021/11/21 06:54:11;;;;;;;37.38;29.45;;;9.30;99.90;;;;;;5013416;28;20381;-84
2021/11/21 06:56:37;;;;;;;39.10;28.73;;;9.40;99.90;;;;;;5014213;28;20510;-83
2021/11/21 06:59:04;;;;;;;34.92;27.50;;;9.30;99.90;;;;;;5031848;28;20413;-84
2021/11/21 07:01:30;;;;;;;40.38;29.08;;;9.40;99.90;;;;;;5014380;28;20397;-83
2021/11/21 07:03:56;;;;;;;36.08;28.33;;;9.30;99.90;;;;;;5014349;28;20505;-84
2021/11/21 07:06:39;;;;;;;35.50;27.25;;;9.40;99.90;;;;;;5032489;28;20467;-83
2021/11/21 07:09:09;;;;;;;36.80;28.33;;;9.40;99.90;;;;;;5013913;28;20381;-84
2021/11/21 07:11:37;;;;;;;34.47;26.73;;;9.40;99.90;;;;;;5012929;28;20416;-83
2021/11/21 07:14:04;;;;;;;36.08;27.77;;;9.40;99.90;;;;;;5032380;28;20389;-83
2021/11/21 07:16:30;;;;;;;39.30;28.40;;;9.40;99.90;;;;;;5014759;28;20386;-81
2021/11/21 07:18:56;;;;;;;37.47;27.93;;;9.40;99.90;;;;;;5014926;28;20435;-85
2021/11/21 07:21:22;;;;;;;39.10;28.92;;;9.40;99.90;;;;;;5013981;28;20899;-81
2021/11/21 07:23:48;;;;;;;38.72;28.40;;;9.30;99.90;;;;;;5032665;28;20468;-84
2021/11/21 07:26:14;;;;;;;39.30;29.48;;;9.40;99.90;;;;;;5031926;28;20812;-81
2021/11/21 07:28:40;;;;;;;44.07;30.50;;;9.30;99.90;;;;;;5014911;28;20405;-82
2021/11/21 07:31:09;;;;;;;41.97;29.90;;;9.30;99.90;;;;;;5032219;28;20392;-82
2021/11/21 07:33:35;;;;;;;42.65;31.25;;;9.30;99.90;;;;;;5013719;28;20889;-82
2021/11/21 07:36:02;;;;;;;40.75;29.20;;;9.20;99.90;;;;;;5014803;28;20388;-82
2021/11/21 07:38:28;;;;;;;41.05;29.00;;;9.30;99.90;;;;;;5032129;28;20381;-86
2021/11/21 07:40:53;;;;;;;41.13;29.83;;;9.20;99.90;;;;;;5014229;28;20413;-83
2021/11/21 07:43:21;;;;;;;45.07;29.93;;;9.30;99.90;;;;;;5014071;28;20834;-82
2021/11/21 07:45:46;;;;;;;44.67;30.40;;;9.30;99.90;;;;;;5013501;28;20386;-83
2021/11/21 07:48:12;;;;;;;42.33;30.93;;;9.30;99.90;;;;;;5014110;28;20384;-82
2021/11/21 07:50:38;;;;;;;42.83;30.23;;;9.20;99.90;;;;;;5031415;28;20365;-82
2021/11/21 07:53:04;;;;;;;43.28;30.95;;;9.20;99.90;;;;;;5014336;28;20438;-84
2021/11/21 07:55:29;;;;;;;41.13;30.35;;;9.20;99.90;;;;;;5013208;28;20412;-86
2021/11/21 07:57:55;;;;;;;40.95;30.77;;;9.30;99.90;;;;;;5031866;28;20374;-84
2021/11/21 08:00:21;;;;;;;40.20;29.08;;;9.40;99.90;;;;;;5013881;28;20401;-81
2021/11/21 08:02:47;;;;;;;41.13;29.85;;;9.40;99.90;;;;;;5013399;28;20388;-86
2021/11/21 08:05:14;;;;;;;39.88;29.10;;;9.30;99.90;;;;;;5031637;28;20370;-83
2021/11/21 08:07:40;;;;;;;41.35;29.35;;;9.50;99.90;;;;;;5034129;28;20389;-83
2021/11/21 08:10:08;;;;;;;40.83;28.73;;;9.40;99.90;;;;;;5032417;28;20378;-81
2021/11/21 08:12:34;;;;;;;42.53;29.58;;;9.40;99.90;;;;;;5013681;28;20398;-84
2021/11/21 08:15:00;;;;;;;39.70;29.13;;;9.40;99.90;;;;;;5031362;28;20374;-82
2021/11/21 08:17:26;;;;;;;42.53;29.77;;;9.40;99.90;;;;;;5012875;28;20957;-86
2021/11/21 08:19:53;;;;;;;41.65;28.70;;;9.30;99.90;;;;;;5014748;28;20937;-83
2021/11/21 08:22:20;;;;;;;40.22;28.77;;;9.20;99.90;;;;;;5031855;28;20377;-83
2021/11/21 08:24:46;;;;;;;42.70;28.80;;;9.10;99.90;;;;;;5014331;28;20465;-81
2021/11/21 08:27:13;;;;;;;46.67;29.90;;;9.10;99.90;;;;;;5013636;28;20875;-82
2021/11/21 08:29:41;;;;;;;41.67;29.55;;;9.00;99.90;;;;;;5013891;28;20413;-83
2021/11/21 08:32:07;;;;;;;41.60;28.52;;;9.10;99.90;;;;;;5012692;28;20401;-85
2021/11/21 08:34:34;;;;;;;39.42;27.83;;;9.10;99.90;;;;;;5013313;28;20388;-86
2021/11/21 08:37:01;;;;;;;40.60;27.58;;;9.30;99.90;;;;;;5031799;28;20385;-82
2021/11/21 08:39:27;;;;;;;39.57;27.43;;;9.30;99.90;;;;;;5013772;28;20838;-82
2021/11/21 08:42:13;;;;;;;41.17;27.27;;;9.30;99.90;;;;;;5030623;28;20420;-84
2021/11/21 08:44:38;;;;;;;41.15;27.77;;;9.30;99.90;;;;;;5030273;28;20870;-84
2021/11/21 08:47:05;;;;;;;41.67;27.98;;;9.30;99.90;;;;;;5031000;28;20378;-84
2021/11/21 08:49:30;;;;;;;40.40;27.15;;;9.20;99.90;;;;;;4997318;28;20440;-83
2021/11/21 08:51:56;;;;;;;42.45;27.38;;;9.20;99.90;;;;;;5013070;28;20495;-83
2021/11/21 08:54:22;;;;;;;41.40;27.73;;;9.30;99.90;;;;;;5014706;28;20388;-85
2021/11/21 08:56:49;;;;;;;37.63;26.33;;;9.30;99.90;;;;;;5013835;28;20421;-83
2021/11/21 08:59:15;;;;;;;41.08;27.88;;;9.40;99.90;;;;;;5012414;28;20377;-82
2021/11/21 09:01:42;;;;;;;41.90;28.77;;;9.50;99.90;;;;;;5029148;28;20413;-85
2021/11/21 09:04:09;;;;;;;43.05;28.85;;;9.40;99.90;;;;;;5011672;28;20528;-81
2021/11/21 09:06:35;;;;;;;47.93;29.83;;;9.30;99.90;;;;;;5011662;28;20438;-84
2021/11/21 09:09:01;;;;;;;47.42;30.67;;;9.20;99.90;;;;;;5029244;28;20378;-83
2021/11/21 09:11:27;;;;;;;47.22;31.75;;;9.10;99.90;;;;;;5027818;28;20427;-81
2021/11/21 09:13:53;;;;;;;49.47;32.08;;;9.10;99.90;;;;;;5011667;28;20381;-81
2021/11/21 09:16:19;;;;;;;52.67;34.20;;;9.20;99.90;;;;;;5011325;28;20506;-84
2021/11/21 09:18:45;;;;;;;48.67;31.90;;;9.10;99.90;;;;;;5029132;28;20411;-83
2021/11/21 09:21:11;;;;;;;50.22;33.40;;;9.10;99.90;;;;;;5028596;28;20408;-84
2021/11/21 09:23:38;;;;;;;50.20;33.23;;;9.20;99.90;;;;;;5011959;28;20381;-85
2021/11/21 09:26:04;;;;;;;50.20;31.70;;;9.30;99.90;;;;;;5010569;28;20901;-81
2021/11/21 09:28:30;;;;;;;43.35;30.58;;;9.30;99.90;;;;;;5010839;28;20385;-83
2021/11/21 09:30:56;;;;;;;44.67;31.15;;;9.40;99.90;;;;;;5011698;28;20386;-84
2021/11/21 09:33:25;;;;;;;46.83;31.13;;;9.40;99.90;;;;;;5029155;28;21008;-82
2021/11/21 09:35:51;;;;;;;46.95;31.45;;;9.50;99.90;;;;;;5028599;28;20378;-83
2021/11/21 09:38:19;;;;;;;40.78;29.60;;;9.50;99.90;;;;;;5011673;28;20378;-83
2021/11/21 09:40:47;;;;;;;42.22;30.35;;;9.50;99.90;;;;;;5028085;28;20408;-82
2021/11/21 09:43:12;;;;;;;41.33;28.45;;;9.60;99.90;;;;;;5010850;28;20501;-83
2021/11/21 09:45:38;;;;;;;40.70;28.50;;;9.50;99.90;;;;;;5015159;28;20464;-81
2021/11/21 09:48:06;;;;;;;40.33;28.77;;;9.60;99.90;;;;;;5033217;28;20464;-80
2021/11/21 09:50:40;;;;;;;40.05;27.73;;;9.60;99.90;;;;;;5014881;28;20385;-84
2021/11/21 09:53:07;;;;;;;35.75;27.17;;;9.60;99.90;;;;;;5015117;28;20425;-84
2021/11/21 09:55:33;;;;;;;37.25;27.17;;;9.70;99.90;;;;;;5014309;28;20394;-84
2021/11/21 09:57:59;;;;;;;37.30;27.45;;;9.60;99.90;;;;;;5014891;28;20389;-81
2021/11/21 10:00:27;;;;;;;36.85;27.88;;;9.60;99.90;;;;;;5014227;28;20865;-83
2021/11/21 10:03:03;;;;;;;40.78;27.83;;;9.60;99.90;;;;;;5032717;28;20452;-83
2021/11/21 10:05:34;;;;;;;37.42;26.73;;;9.60;99.90;;;;;;5032251;28;20396;-81
2021/11/21 10:08:35;;;;;;;35.17;25.92;;;9.70;99.90;;;;;;5032343;28;20407;-82
2021/11/21 10:11:09;;;;;;;33.47;25.90;;;9.70;99.90;;;;;;5009819;28;20389;-84
2021/11/21 10:13:42;;;;;;;32.63;25.15;;;9.80;99.90;;;;;;5017140;28;20717;-83
2021/11/21 10:16:19;;;;;;;31.60;24.75;;;9.80;99.90;;;;;;5000146;28;20397;-82
2021/11/21 10:18:58;;;;;;;31.90;24.65;;;10.00;99.90;;;;;;5014629;28;20369;-81
2021/11/21 10:21:36;;;;;;;31.98;23.45;;;10.10;99.90;;;;;;5013966;28;20410;-81
2021/11/21 10:24:18;;;;;;;31.08;24.40;;;10.10;99.90;;;;;;5032165;28;20377;-84
2021/11/21 10:26:43;;;;;;;33.10;25.37;;;10.00;99.90;;;;;;5013804;28;20409;-82
2021/11/21 10:29:34;;;;;;;28.40;23.37;;;10.00;99.90;;;;;;5013686;28;20389;-83
2021/11/21 10:32:02;;;;;;;30.20;23.08;;;10.10;99.90;;;;;;5031759;28;20725;-82
2021/11/21 10:34:28;;;;;;;28.70;22.63;;;10.30;99.90;;;;;;5013998;28;20412;-84
2021/11/21 10:37:06;;;;;;;28.33;23.50;;;10.30;99.90;;;;;;5014026;28;20515;-83
2021/11/21 10:39:32;;;;;;;31.15;22.92;;;10.20;99.90;;;;;;5014002;28;20398;-83
2021/11/21 10:42:01;;;;;;;28.77;22.08;;;10.30;99.90;;;;;;5030687;28;20926;-82
2021/11/21 10:44:27;;;;;;;25.85;20.85;;;10.30;99.90;;;;;;5014364;28;20447;-83
2021/11/21 10:46:56;;;;;;;24.45;19.75;;;10.40;99.90;;;;;;5013822;28;20373;-82
2021/11/21 10:49:22;;;;;;;26.92;21.52;;;10.40;99.90;;;;;;5013768;28;20771;-80
2021/11/21 10:51:57;;;;;;;25.30;20.40;;;10.40;99.90;;;;;;5013104;28;20386;-81
2021/11/21 10:54:28;;;;;;;25.33;20.50;;;10.50;99.90;;;;;;5031224;28;20386;-82
2021/11/21 10:56:56;;;;;;;26.33;20.13;;;10.50;99.90;;;;;;5030652;28;20883;-83
2021/11/21 10:59:42;;;;;;;27.10;19.83;;;10.60;99.90;;;;;;5031847;28;20386;-82
2021/11/21 11:02:13;;;;;;;25.92;20.45;;;10.60;99.90;;;;;;5030888;28;20883;-84
2021/11/21 11:04:59;;;;;;;26.40;20.40;;;10.70;99.90;;;;;;5031490;28;20709;-83
2021/11/21 11:07:26;;;;;;;23.23;19.73;;;10.70;99.90;;;;;;5013563;28;20748;-82
2021/11/21 11:09:54;;;;;;;22.77;18.58;;;10.80;99.90;;;;;;5013629;28;20385;-83
2021/11/21 11:12:21;;;;;;;23.33;18.88;;;10.90;99.90;;;;;;5012537;28;20889;-81
2021/11/21 11:14:47;;;;;;;22.65;18.33;;;10.70;99.90;;;;;;5013409;28;20378;-82
2021/11/21 11:17:13;;;;;;;22.67;18.85;;;10.70;99.90;;;;;;5031459;28;20374;-84
2021/11/21 11:19:39;;;;;;;27.08;19.27;;;10.60;99.90;;;;;;5013676;28;20488;-81
2021/11/21 11:22:05;;;;;;;24.23;18.60;;;10.60;99.90;;;;;;5013552;28;20415;-84
2021/11/21 11:24:36;;;;;;;24.40;19.17;;;10.60;99.90;;;;;;5031124;28;20377;-81
2021/11/21 11:27:28;;;;;;;24.60;18.10;;;10.60;99.90;;;;;;5012589;28;20390;-82
2021/11/21 11:29:54;;;;;;;28.45;19.17;;;10.70;99.90;;;;;;5007728;28;20523;-83
2021/11/21 11:32:23;;;;;;;23.70;17.92;;;10.80;99.90;;;;;;5030756;28;21192;-83
2021/11/21 11:34:50;;;;;;;24.05;18.02;;;10.80;99.90;;;;;;5031100;28;20389;-82
2021/11/21 11:37:44;;;;;;;23.80;18.17;;;10.70;99.90;;;;;;5030744;28;20445;-83
2021/11/21 11:40:29;;;;;;;23.73;18.15;;;10.80;99.90;;;;;;4995404;28;20863;-80
2021/11/21 11:43:29;;;;;;;22.77;18.02;;;10.90;99.90;;;;;;5011938;28;20394;-82
2021/11/21 11:46:07;;;;;;;25.77;18.70;;;11.00;99.90;;;;;;5030357;28;20903;-83
2021/11/21 11:48:57;;;;;;;26.80;19.58;;;10.90;99.90;;;;;;5030625;28;20381;-81
2021/11/21 11:51:29;;;;;;;27.05;19.35;;;10.80;99.90;;;;;;5028945;28;20378;-82
2021/11/21 11:54:02;;;;;;;23.40;18.63;;;10.70;99.90;;;;;;5012426;28;20428;-81
2021/11/21 11:56:31;;;;;;;26.48;19.58;;;10.80;99.90;;;;;;5011973;28;20496;-83
2021/11/21 11:59:29;;;;;;;25.50;18.13;;;11.00;99.90;;;;;;5030620;28;20374;-82
2021/11/21 12:01:55;;;;;;;20.80;16.47;;;11.00;99.90;;;;;;5025908;28;20500;-83
2021/11/21 12:04:24;;;;;;;23.90;17.77;;;11.10;99.90;;;;;;5012219;28;20528;-80
2021/11/21 12:06:54;;;;;;;21.40;17.05;;;11.10;99.90;;;;;;5011448;28;20891;-81
2021/11/21 12:09:26;;;;;;;20.33;16.57;;;11.00;99.90;;;;;;5030053;28;20381;-81
2021/11/21 12:11:56;;;;;;;21.10;16.92;;;11.10;99.90;;;;;;5029637;28;20382;-83
2021/11/21 12:14:25;;;;;;;20.88;16.77;;;11.10;99.90;;;;;;5029399;28;20571;-82
2021/11/21 12:16:55;;;;;;;21.73;16.13;;;11.10;99.90;;;;;;5013071;28;20378;-85
2021/11/21 12:19:54;;;;;;;23.17;16.90;;;11.00;99.90;;;;;;5015272;28;20382;-81
2021/11/21 12:22:29;;;;;;;20.45;16.25;;;11.00;99.90;;;;;;5012675;28;20393;-81
2021/11/21 12:24:57;;;;;;;21.05;16.55;;;11.00;99.90;;;;;;5030288;28;20400;-80
2021/11/21 12:27:26;;;;;;;20.23;15.68;;;11.00;99.90;;;;;;5012012;28;20373;-81
2021/11/21 12:30:18;;;;;;;20.17;15.95;;;11.10;99.90;;;;;;5011912;28;20471;-83
2021/11/21 12:32:45;;;;;;;20.25;15.93;;;11.10;99.90;;;;;;5011829;28;20428;-83
2021/11/21 12:35:30;;;;;;;20.25;15.77;;;11.10;99.90;;;;;;5012113;28;20456;-84
2021/11/21 12:38:02;;;;;;;19.67;15.30;;;11.10;99.90;;;;;;5011577;28;20431;-82